createdAt,value
2022-12-09T00:04:17.309Z,13.10
2022-12-09T00:09:20.590Z,13.77
2022-12-09T00:14:23.621Z,10.60
2022-12-09T00:19:27.825Z,10.60
2022-12-09T00:24:30.722Z,9.60
2022-12-09T00:29:33.467Z,11.10
2022-12-09T00:34:38.559Z,11.43
2022-12-09T00:39:44.502Z,11.47
2022-12-09T00:44:47.307Z,9.67
2022-12-09T00:49:51.597Z,9.37
2022-12-09T00:54:54.482Z,8.50
2022-12-09T00:59:57.661Z,9.93
2022-12-09T01:05:02.028Z,10.90
2022-12-09T01:10:06.266Z,10.27
2022-12-09T01:15:11.728Z,7.60
2022-12-09T01:20:16.258Z,7.90
2022-12-09T01:25:19.469Z,9.93
2022-12-09T01:30:22.577Z,6.17
2022-12-09T01:35:27.011Z,6.13
2022-12-09T01:40:29.897Z,6.37
2022-12-09T01:45:43.573Z,6.47
2022-12-09T01:50:52.136Z,8.20
2022-12-09T01:55:55.772Z,6.53
2022-12-09T02:00:59.076Z,8.27
2022-12-09T02:06:03.352Z,8.40
2022-12-09T02:11:09.397Z,6.87
2022-12-09T02:16:20.861Z,8.30
2022-12-09T02:21:28.811Z,6.33
2022-12-09T02:26:36.962Z,7.03
2022-12-09T02:32:08.963Z,6.93
2022-12-09T02:37:17.524Z,7.37
2022-12-09T02:42:27.758Z,6.77
2022-12-09T02:47:34.158Z,8.00
2022-12-09T02:52:39.535Z,8.30
2022-12-09T02:57:42.729Z,7.27
2022-12-09T03:02:50.573Z,5.33
2022-12-09T03:08:00.293Z,5.53
2022-12-09T03:13:06.942Z,6.53
2022-12-09T03:18:12.494Z,6.43
2022-12-09T03:23:17.990Z,5.40
2022-12-09T03:28:22.973Z,7.03
2022-12-09T03:33:26.610Z,7.43
2022-12-09T03:38:34.342Z,6.03
2022-12-09T03:43:39.418Z,9.63
2022-12-09T03:48:42.285Z,6.20
2022-12-09T03:53:50.949Z,7.63
2022-12-09T03:58:55.488Z,7.57
2022-12-09T04:03:58.640Z,6.17
2022-12-09T04:09:03.401Z,7.20
2022-12-09T04:14:10.404Z,6.27
2022-12-09T04:19:16.737Z,7.53
2022-12-09T04:24:20.980Z,6.47
2022-12-09T04:29:23.874Z,12.53
2022-12-09T04:34:27.031Z,7.77
2022-12-09T04:39:31.434Z,8.23
2022-12-09T04:44:34.316Z,6.63
2022-12-09T04:49:37.498Z,8.83
2022-12-09T04:54:41.776Z,7.70
2022-12-09T04:59:44.680Z,8.70
2022-12-09T05:04:47.937Z,9.00
2022-12-09T05:09:53.074Z,8.43
2022-12-09T05:14:56.320Z,9.27
2022-12-09T05:19:59.233Z,7.47
2022-12-09T05:25:03.501Z,11.73
2022-12-09T05:30:08.007Z,9.43
2022-12-09T05:35:11.579Z,8.20
2022-12-09T05:40:17.812Z,10.63
2022-12-09T05:45:20.826Z,12.73
2022-12-09T05:50:24.012Z,10.80
2022-12-09T05:55:28.316Z,9.47
2022-12-09T06:00:31.418Z,12.80
2022-12-09T06:05:34.585Z,11.17
2022-12-09T06:10:41.543Z,8.03
2022-12-09T06:15:44.715Z,7.90
2022-12-09T06:20:47.982Z,9.40
2022-12-09T06:25:52.482Z,5.73
2022-12-09T06:30:55.635Z,7.87
2022-12-09T06:36:02.124Z,10.03
2022-12-09T06:41:08.807Z,12.23
2022-12-09T06:46:16.134Z,7.70
2022-12-09T06:51:19.895Z,7.43
2022-12-09T06:56:24.851Z,9.57
2022-12-09T07:01:28.604Z,9.17
2022-12-09T07:06:37.334Z,8.83
2022-12-09T07:11:42.515Z,8.47
2022-12-09T07:16:46.073Z,9.57
2022-12-09T07:21:50.102Z,7.80
2022-12-09T07:26:54.510Z,8.70
2022-12-09T07:31:57.895Z,10.00
2022-12-09T07:37:01.238Z,7.90
2022-12-09T07:42:06.528Z,7.33
2022-12-09T07:47:21.336Z,7.73
2022-12-09T07:52:24.747Z,10.33
2022-12-09T07:57:29.144Z,6.93
2022-12-09T08:02:32.443Z,7.43
2022-12-09T08:07:38.835Z,7.63
2022-12-09T08:12:48.128Z,8.50
2022-12-09T08:17:51.086Z,10.63
2022-12-09T08:22:54.947Z,6.87
2022-12-09T08:27:59.687Z,5.87
2022-12-09T08:33:03.370Z,7.57
2022-12-09T08:38:06.614Z,7.17
2022-12-09T08:43:11.447Z,5.97
2022-12-09T08:48:14.505Z,6.33
2022-12-09T08:53:17.871Z,8.83
2022-12-09T08:58:22.071Z,9.67
2022-12-09T09:03:25.367Z,9.40
2022-12-09T09:08:28.449Z,10.13
2022-12-09T09:13:33.299Z,9.97
2022-12-09T09:18:36.674Z,11.47
2022-12-09T09:23:40.083Z,9.47
2022-12-09T09:28:44.650Z,10.67
2022-12-09T09:33:48.766Z,10.10
2022-12-09T09:38:53.941Z,10.03
2022-12-09T09:43:58.975Z,12.17
2022-12-09T09:49:02.405Z,10.87
2022-12-09T09:54:08.912Z,11.70
2022-12-09T09:59:23.968Z,12.20
2022-12-09T10:04:31.707Z,11.33
2022-12-09T10:09:42.791Z,13.53
2022-12-09T10:14:54.499Z,13.70
2022-12-09T10:20:00.210Z,15.90
2022-12-09T10:25:17.878Z,13.47
2022-12-09T10:30:23.304Z,15.33
2022-12-09T10:35:28.803Z,14.90
2022-12-09T10:40:38.250Z,14.83
2022-12-09T10:51:15.089Z,16.40
2022-12-09T10:56:20.156Z,16.87
2022-12-09T11:01:24.628Z,15.87
2022-12-09T11:06:41.754Z,16.27
2022-12-09T11:11:46.515Z,19.67
2022-12-09T11:16:56.231Z,17.13
2022-12-09T11:22:16.088Z,17.10
2022-12-09T11:27:28.900Z,18.93
2022-12-09T11:32:33.350Z,16.63
2022-12-09T11:37:42.473Z,13.90
2022-12-09T11:42:50.478Z,14.43
2022-12-09T11:53:29.398Z,19.50
2022-12-09T11:58:37.985Z,17.90
2022-12-09T12:03:47.332Z,17.67
2022-12-09T12:08:52.769Z,19.73
2022-12-09T12:14:01.815Z,19.23
2022-12-09T12:19:13.392Z,20.20
2022-12-09T12:24:45.594Z,17.37
2022-12-09T12:29:54.930Z,19.83
2022-12-09T12:35:11.744Z,19.47
2022-12-09T12:40:26.831Z,18.33
2022-12-09T12:45:54.795Z,18.27
2022-12-09T12:56:40.901Z,14.80
2022-12-09T13:01:52.162Z,16.03
2022-12-09T13:07:01.787Z,15.07
2022-12-09T13:12:10.616Z,16.27
2022-12-09T13:17:14.718Z,15.23
2022-12-09T13:22:21.804Z,15.57
2022-12-09T13:27:31.475Z,16.07
2022-12-09T13:32:50.679Z,15.10
2022-12-09T13:38:01.524Z,17.30
2022-12-09T13:43:13.565Z,16.10
2022-12-09T13:48:41.833Z,17.67
2022-12-09T13:53:50.510Z,14.87
2022-12-09T13:59:31.928Z,12.37
2022-12-09T14:04:36.494Z,14.87
2022-12-09T14:09:48.363Z,13.33
2022-12-09T14:14:52.749Z,14.57
2022-12-09T14:20:02.654Z,16.40
2022-12-09T14:25:51.192Z,15.90
2022-12-09T14:31:08.063Z,17.63
2022-12-09T14:36:24.567Z,16.10
2022-12-09T14:41:32.375Z,16.13
2022-12-09T14:46:37.075Z,17.73
2022-12-09T14:51:44.139Z,17.27
2022-12-09T14:56:51.435Z,16.67
2022-12-09T15:01:57.148Z,15.13
2022-12-09T15:07:10.955Z,15.13
2022-12-09T15:12:15.281Z,15.57
2022-12-09T15:17:24.366Z,16.67
2022-12-09T15:22:30.552Z,16.43
2022-12-09T15:27:34.854Z,14.43
2022-12-09T15:32:39.989Z,16.97
2022-12-09T15:37:42.934Z,14.90
2022-12-09T15:42:48.657Z,18.23
2022-12-09T15:47:54.535Z,13.17
2022-12-09T15:53:01.112Z,15.70
2022-12-09T15:58:08.049Z,14.27
2022-12-09T16:03:11.081Z,12.63
2022-12-09T16:08:13.984Z,15.23
2022-12-09T16:13:21.186Z,15.80
2022-12-09T16:18:25.633Z,13.40
2022-12-09T16:23:28.679Z,12.93
2022-12-09T16:28:33.026Z,12.77
2022-12-09T16:33:39.523Z,14.93
2022-12-09T16:38:44.340Z,15.27
2022-12-09T16:43:57.189Z,13.87
2022-12-09T16:49:05.029Z,14.87
2022-12-09T16:54:20.245Z,15.23
2022-12-09T16:59:28.960Z,13.33
2022-12-09T17:04:36.992Z,13.63
2022-12-09T17:09:39.775Z,13.33
2022-12-09T17:14:44.123Z,14.33
2022-12-09T17:19:47.207Z,15.03
2022-12-09T17:24:50.293Z,15.03
2022-12-09T17:29:54.485Z,13.03
2022-12-09T17:34:57.312Z,14.63
2022-12-09T17:40:03.501Z,14.27
2022-12-09T17:45:10.303Z,16.33
2022-12-09T17:50:13.290Z,16.10
2022-12-09T17:55:16.170Z,19.80
2022-12-09T18:00:20.928Z,18.30
2022-12-09T18:05:23.750Z,18.10
2022-12-09T18:10:26.586Z,18.63
2022-12-09T18:15:30.756Z,19.87
2022-12-09T18:20:34.211Z,18.70
2022-12-09T18:25:39.742Z,18.87
2022-12-09T18:30:44.037Z,18.50
2022-12-09T18:35:47.190Z,18.30
2022-12-09T18:41:02.234Z,18.27
2022-12-09T18:46:08.734Z,17.40
2022-12-09T18:51:16.542Z,18.73
2022-12-09T18:56:19.431Z,21.57
2022-12-09T19:01:25.469Z,18.67
2022-12-09T19:06:31.616Z,20.53
2022-12-09T19:11:35.553Z,19.67
2022-12-09T19:16:39.881Z,18.67
2022-12-09T19:21:43.233Z,18.90
2022-12-09T19:26:46.191Z,16.63
2022-12-09T19:31:51.264Z,15.90
2022-12-09T19:36:56.073Z,15.50
2022-12-09T19:41:59.750Z,12.50
2022-12-09T19:47:04.134Z,15.63
2022-12-09T19:52:07.015Z,16.23
2022-12-09T19:57:10.623Z,16.03
2022-12-09T20:02:15.321Z,15.67
2022-12-09T20:07:18.341Z,17.87
2022-12-09T20:12:21.406Z,19.20
2022-12-09T20:17:25.586Z,19.30
2022-12-09T20:22:29.604Z,19.23
2022-12-09T20:27:32.459Z,21.30
2022-12-09T20:32:36.681Z,21.73
2022-12-09T20:37:39.557Z,22.43
2022-12-09T20:42:42.439Z,20.43
2022-12-09T20:47:46.674Z,21.83
2022-12-09T20:52:49.550Z,22.23
2022-12-09T20:57:52.346Z,25.53
2022-12-09T21:02:56.548Z,23.40
2022-12-09T21:07:59.445Z,21.90
2022-12-09T21:13:02.585Z,23.73
2022-12-09T21:18:06.953Z,21.87
2022-12-09T21:23:32.734Z,22.47
2022-12-09T21:28:32.793Z,23.10
2022-12-09T21:33:37.408Z,20.60
2022-12-09T21:38:40.661Z,21.90
2022-12-09T21:43:43.713Z,22.20
2022-12-09T21:48:52.088Z,22.37
2022-12-09T21:53:56.015Z,23.10
2022-12-09T21:58:59.624Z,22.63
2022-12-09T22:04:05.908Z,20.13
2022-12-09T22:09:09.158Z,19.97
2022-12-09T22:14:12.169Z,20.63
2022-12-09T22:19:18.329Z,18.63
2022-12-09T22:24:21.154Z,21.57
2022-12-09T22:29:24.132Z,17.10
2022-12-09T22:34:29.044Z,20.60
2022-12-09T22:39:31.920Z,18.67
2022-12-09T22:44:34.746Z,19.27
2022-12-09T22:49:39.017Z,20.30
2022-12-09T22:54:41.902Z,20.10
2022-12-09T22:59:44.768Z,21.60
2022-12-09T23:04:48.960Z,19.90
2022-12-09T23:09:51.811Z,20.67
2022-12-09T23:14:54.724Z,20.03
2022-12-09T23:19:58.973Z,18.57
2022-12-09T23:25:01.799Z,21.27
2022-12-09T23:30:07.099Z,19.63
2022-12-09T23:35:11.777Z,23.73
2022-12-09T23:40:14.571Z,20.33
2022-12-09T23:45:17.597Z,21.83
2022-12-09T23:50:21.892Z,20.37
2022-12-09T23:55:24.713Z,19.93
